sensor_id;sensor_type;location;lat;lon;timestamp;temperature;humidity
21246;DHT22;10781;50.928;4.440;2023-04-24T00:00:03;10.80;99.90
21246;DHT22;10781;50.928;4.440;2023-04-24T00:02:36;10.70;99.90
21246;DHT22;10781;50.928;4.440;2023-04-24T00:05:06;10.70;99.90
21246;DHT22;10781;50.928;4.440;2023-04-24T00:07:32;10.70;99.90
21246;DHT22;10781;50.928;4.440;2023-04-24T00:09:57;10.70;99.90
21246;DHT22;10781;50.928;4.440;2023-04-24T00:12:24;10.90;99.90
21246;DHT22;10781;50.928;4.440;2023-04-24T00:14:49;10.90;99.90
21246;DHT22;10781;50.928;4.440;2023-04-24T00:17:15;10.80;99.90
21246;DHT22;10781;50.928;4.440;2023-04-24T00:19:41;10.90;99.90
21246;DHT22;10781;50.928;4.440;2023-04-24T00:22:07;10.60;99.90
21246;DHT22;10781;50.928;4.440;2023-04-24T00:24:33;10.60;99.90
21246;DHT22;10781;50.928;4.440;2023-04-24T00:26:58;10.70;99.90
21246;DHT22;10781;50.928;4.440;2023-04-24T00:29:26;10.60;99.90
21246;DHT22;10781;50.928;4.440;2023-04-24T00:31:52;10.40;99.90
21246;DHT22;10781;50.928;4.440;2023-04-24T00:34:18;10.40;99.90
21246;DHT22;10781;50.928;4.440;2023-04-24T00:36:43;10.60;99.90
21246;DHT22;10781;50.928;4.440;2023-04-24T00:39:09;10.70;99.90
21246;DHT22;10781;50.928;4.440;2023-04-24T00:41:35;10.60;99.90
21246;DHT22;10781;50.928;4.440;2023-04-24T00:44:01;10.60;99.90
21246;DHT22;10781;50.928;4.440;2023-04-24T00:46:26;10.60;99.90
21246;DHT22;10781;50.928;4.440;2023-04-24T00:48:52;10.60;99.90
21246;DHT22;10781;50.928;4.440;2023-04-24T00:51:18;10.60;99.90
21246;DHT22;10781;50.928;4.440;2023-04-24T00:53:44;10.60;99.90
21246;DHT22;10781;50.928;4.440;2023-04-24T00:56:10;10.60;99.90
21246;DHT22;10781;50.928;4.440;2023-04-24T00:58:36;10.60;99.90
21246;DHT22;10781;50.928;4.440;2023-04-24T01:01:02;10.70;99.90
21246;DHT22;10781;50.928;4.440;2023-04-24T01:03:30;10.70;99.90
21246;DHT22;10781;50.928;4.440;2023-04-24T01:05:57;10.60;99.90
21246;DHT22;10781;50.928;4.440;2023-04-24T01:08:24;10.60;99.90
21246;DHT22;10781;50.928;4.440;2023-04-24T01:10:55;10.60;99.90
21246;DHT22;10781;50.928;4.440;2023-04-24T01:13:22;10.50;99.90
21246;DHT22;10781;50.928;4.440;2023-04-24T01:15:48;10.30;99.90
21246;DHT22;10781;50.928;4.440;2023-04-24T01:18:14;10.20;99.90
21246;DHT22;10781;50.928;4.440;2023-04-24T01:20:42;10.20;99.90
21246;DHT22;10781;50.928;4.440;2023-04-24T01:23:09;10.20;99.90
21246;DHT22;10781;50.928;4.440;2023-04-24T01:25:36;10.20;99.90
21246;DHT22;10781;50.928;4.440;2023-04-24T01:28:02;10.10;99.90
21246;DHT22;10781;50.928;4.440;2023-04-24T01:30:31;10.20;99.90
21246;DHT22;10781;50.928;4.440;2023-04-24T01:32:58;10.10;99.90
21246;DHT22;10781;50.928;4.440;2023-04-24T01:35:24;10.20;99.90
21246;DHT22;10781;50.928;4.440;2023-04-24T01:37:50;10.10;99.90
21246;DHT22;10781;50.928;4.440;2023-04-24T01:40:16;10.10;99.90
21246;DHT22;10781;50.928;4.440;2023-04-24T01:42:42;10.20;99.90
21246;DHT22;10781;50.928;4.440;2023-04-24T01:45:10;10.30;99.90
21246;DHT22;10781;50.928;4.440;2023-04-24T01:47:36;10.30;99.90
21246;DHT22;10781;50.928;4.440;2023-04-24T01:50:03;10.40;99.90
21246;DHT22;10781;50.928;4.440;2023-04-24T01:52:29;10.30;99.90
21246;DHT22;10781;50.928;4.440;2023-04-24T01:54:59;10.40;99.90
21246;DHT22;10781;50.928;4.440;2023-04-24T01:57:26;10.20;99.90
21246;DHT22;10781;50.928;4.440;2023-04-24T01:59:52;10.10;99.90
21246;DHT22;10781;50.928;4.440;2023-04-24T02:02:17;10.00;99.90
21246;DHT22;10781;50.928;4.440;2023-04-24T02:04:43;9.90;99.90
21246;DHT22;10781;50.928;4.440;2023-04-24T02:07:09;9.90;99.90
21246;DHT22;10781;50.928;4.440;2023-04-24T02:09:34;10.00;99.90
21246;DHT22;10781;50.928;4.440;2023-04-24T02:12:00;10.20;99.90
21246;DHT22;10781;50.928;4.440;2023-04-24T02:14:26;9.90;99.90
21246;DHT22;10781;50.928;4.440;2023-04-24T02:16:51;9.90;99.90
21246;DHT22;10781;50.928;4.440;2023-04-24T02:19:18;9.90;99.90
21246;DHT22;10781;50.928;4.440;2023-04-24T02:21:44;9.80;99.90
21246;DHT22;10781;50.928;4.440;2023-04-24T02:24:10;9.90;99.90
21246;DHT22;10781;50.928;4.440;2023-04-24T02:26:35;10.00;99.90
21246;DHT22;10781;50.928;4.440;2023-04-24T02:29:01;9.90;99.90
21246;DHT22;10781;50.928;4.440;2023-04-24T02:31:27;9.80;99.90
21246;DHT22;10781;50.928;4.440;2023-04-24T02:33:52;9.80;99.90
21246;DHT22;10781;50.928;4.440;2023-04-24T02:36:18;9.90;99.90
21246;DHT22;10781;50.928;4.440;2023-04-24T02:38:44;9.80;99.90
21246;DHT22;10781;50.928;4.440;2023-04-24T02:41:10;9.80;99.90
21246;DHT22;10781;50.928;4.440;2023-04-24T02:43:35;10.00;99.90
21246;DHT22;10781;50.928;4.440;2023-04-24T02:46:01;9.90;99.90
21246;DHT22;10781;50.928;4.440;2023-04-24T02:48:26;9.80;99.90
21246;DHT22;10781;50.928;4.440;2023-04-24T02:50:52;9.70;99.90
21246;DHT22;10781;50.928;4.440;2023-04-24T02:53:18;9.70;99.90
21246;DHT22;10781;50.928;4.440;2023-04-24T02:55:44;9.60;99.90
21246;DHT22;10781;50.928;4.440;2023-04-24T02:58:10;9.40;99.90
21246;DHT22;10781;50.928;4.440;2023-04-24T03:00:36;9.50;99.90
21246;DHT22;10781;50.928;4.440;2023-04-24T03:03:01;9.60;99.90
21246;DHT22;10781;50.928;4.440;2023-04-24T03:05:28;9.60;99.90
21246;DHT22;10781;50.928;4.440;2023-04-24T03:07:53;9.50;99.90
21246;DHT22;10781;50.928;4.440;2023-04-24T03:10:19;9.50;99.90
21246;DHT22;10781;50.928;4.440;2023-04-24T03:12:45;9.50;99.90
21246;DHT22;10781;50.928;4.440;2023-04-24T03:15:10;9.40;99.90
21246;DHT22;10781;50.928;4.440;2023-04-24T03:17:36;9.40;99.90
21246;DHT22;10781;50.928;4.440;2023-04-24T03:20:02;9.40;99.90
21246;DHT22;10781;50.928;4.440;2023-04-24T03:22:30;9.50;99.90
21246;DHT22;10781;50.928;4.440;2023-04-24T03:24:58;9.60;99.90
21246;DHT22;10781;50.928;4.440;2023-04-24T03:27:23;9.50;99.90
21246;DHT22;10781;50.928;4.440;2023-04-24T03:29:49;9.40;99.90
21246;DHT22;10781;50.928;4.440;2023-04-24T03:32:19;9.30;99.90
21246;DHT22;10781;50.928;4.440;2023-04-24T03:34:45;9.40;99.90
21246;DHT22;10781;50.928;4.440;2023-04-24T03:37:10;9.40;99.90
21246;DHT22;10781;50.928;4.440;2023-04-24T03:39:36;9.50;99.90
21246;DHT22;10781;50.928;4.440;2023-04-24T03:42:01;9.60;99.90
21246;DHT22;10781;50.928;4.440;2023-04-24T03:44:27;9.60;99.90
21246;DHT22;10781;50.928;4.440;2023-04-24T03:46:53;9.40;99.90
21246;DHT22;10781;50.928;4.440;2023-04-24T03:49:19;9.30;99.90
21246;DHT22;10781;50.928;4.440;2023-04-24T03:51:44;9.20;99.90
21246;DHT22;10781;50.928;4.440;2023-04-24T03:54:10;9.20;99.90
21246;DHT22;10781;50.928;4.440;2023-04-24T03:56:36;9.30;99.90
21246;DHT22;10781;50.928;4.440;2023-04-24T03:59:01;9.30;99.90
21246;DHT22;10781;50.928;4.440;2023-04-24T04:01:27;9.30;99.90
21246;DHT22;10781;50.928;4.440;2023-04-24T04:03:53;9.30;99.90
21246;DHT22;10781;50.928;4.440;2023-04-24T04:06:19;9.20;99.90
21246;DHT22;10781;50.928;4.440;2023-04-24T04:08:46;9.20;99.90
21246;DHT22;10781;50.928;4.440;2023-04-24T04:11:12;9.30;99.90
21246;DHT22;10781;50.928;4.440;2023-04-24T04:13:38;9.30;99.90
21246;DHT22;10781;50.928;4.440;2023-04-24T04:16:03;9.40;99.90
21246;DHT22;10781;50.928;4.440;2023-04-24T04:18:29;9.40;99.90
21246;DHT22;10781;50.928;4.440;2023-04-24T04:20:55;9.40;99.90
21246;DHT22;10781;50.928;4.440;2023-04-24T04:23:22;9.60;99.90
21246;DHT22;10781;50.928;4.440;2023-04-24T04:25:48;9.60;99.90
21246;DHT22;10781;50.928;4.440;2023-04-24T04:28:13;9.50;99.90
21246;DHT22;10781;50.928;4.440;2023-04-24T04:30:40;9.50;99.90
21246;DHT22;10781;50.928;4.440;2023-04-24T04:33:06;9.40;99.90
21246;DHT22;10781;50.928;4.440;2023-04-24T04:35:33;9.40;99.90
21246;DHT22;10781;50.928;4.440;2023-04-24T04:37:59;9.20;99.90
21246;DHT22;10781;50.928;4.440;2023-04-24T04:40:24;9.20;99.90
21246;DHT22;10781;50.928;4.440;2023-04-24T04:42:50;9.30;99.90
21246;DHT22;10781;50.928;4.440;2023-04-24T04:45:18;9.20;99.90
21246;DHT22;10781;50.928;4.440;2023-04-24T04:47:44;9.20;99.90
21246;DHT22;10781;50.928;4.440;2023-04-24T04:50:10;9.20;99.90
21246;DHT22;10781;50.928;4.440;2023-04-24T04:52:36;9.20;99.90
21246;DHT22;10781;50.928;4.440;2023-04-24T04:55:02;9.20;99.90
21246;DHT22;10781;50.928;4.440;2023-04-24T04:57:28;9.20;99.90
21246;DHT22;10781;50.928;4.440;2023-04-24T04:59:53;9.10;99.90
21246;DHT22;10781;50.928;4.440;2023-04-24T05:02:19;9.10;99.90
21246;DHT22;10781;50.928;4.440;2023-04-24T05:04:45;9.20;99.90
21246;DHT22;10781;50.928;4.440;2023-04-24T05:07:11;9.10;99.90
21246;DHT22;10781;50.928;4.440;2023-04-24T05:09:36;9.10;99.90
21246;DHT22;10781;50.928;4.440;2023-04-24T05:12:03;9.10;99.90
21246;DHT22;10781;50.928;4.440;2023-04-24T05:14:28;9.20;99.90
21246;DHT22;10781;50.928;4.440;2023-04-24T05:16:54;9.20;99.90
21246;DHT22;10781;50.928;4.440;2023-04-24T05:19:20;9.20;99.90
21246;DHT22;10781;50.928;4.440;2023-04-24T05:21:45;9.10;99.90
21246;DHT22;10781;50.928;4.440;2023-04-24T05:24:11;9.20;99.90
21246;DHT22;10781;50.928;4.440;2023-04-24T05:26:37;9.10;99.90
21246;DHT22;10781;50.928;4.440;2023-04-24T05:29:03;9.20;99.90
21246;DHT22;10781;50.928;4.440;2023-04-24T05:31:29;9.20;99.90
21246;DHT22;10781;50.928;4.440;2023-04-24T05:33:55;9.20;99.90
21246;DHT22;10781;50.928;4.440;2023-04-24T05:36:20;9.20;99.90
21246;DHT22;10781;50.928;4.440;2023-04-24T05:38:46;9.20;99.90
21246;DHT22;10781;50.928;4.440;2023-04-24T05:41:12;9.10;99.90
21246;DHT22;10781;50.928;4.440;2023-04-24T05:43:37;9.10;99.90
21246;DHT22;10781;50.928;4.440;2023-04-24T05:46:03;9.10;99.90
21246;DHT22;10781;50.928;4.440;2023-04-24T05:48:29;9.00;99.90
21246;DHT22;10781;50.928;4.440;2023-04-24T05:50:55;9.00;99.90
21246;DHT22;10781;50.928;4.440;2023-04-24T05:53:20;8.90;99.90
21246;DHT22;10781;50.928;4.440;2023-04-24T05:55:47;8.90;99.90
21246;DHT22;10781;50.928;4.440;2023-04-24T05:58:12;9.00;99.90
21246;DHT22;10781;50.928;4.440;2023-04-24T06:00:38;9.10;99.90
21246;DHT22;10781;50.928;4.440;2023-04-24T06:03:07;9.20;99.90
21246;DHT22;10781;50.928;4.440;2023-04-24T06:05:33;9.20;99.90
21246;DHT22;10781;50.928;4.440;2023-04-24T06:07:59;9.10;99.90
21246;DHT22;10781;50.928;4.440;2023-04-24T06:10:25;9.00;99.90
21246;DHT22;10781;50.928;4.440;2023-04-24T06:12:50;8.90;99.90
21246;DHT22;10781;50.928;4.440;2023-04-24T06:15:16;9.00;99.90
21246;DHT22;10781;50.928;4.440;2023-04-24T06:17:42;8.90;99.90
21246;DHT22;10781;50.928;4.440;2023-04-24T06:20:08;8.90;99.90
21246;DHT22;10781;50.928;4.440;2023-04-24T06:22:34;8.90;99.90
21246;DHT22;10781;50.928;4.440;2023-04-24T06:25:00;8.90;99.90
21246;DHT22;10781;50.928;4.440;2023-04-24T06:27:26;9.00;99.90
21246;DHT22;10781;50.928;4.440;2023-04-24T06:29:52;9.00;99.90
21246;DHT22;10781;50.928;4.440;2023-04-24T06:32:23;9.00;99.90
21246;DHT22;10781;50.928;4.440;2023-04-24T06:34:50;9.00;99.90
21246;DHT22;10781;50.928;4.440;2023-04-24T06:37:16;9.10;99.90
21246;DHT22;10781;50.928;4.440;2023-04-24T06:39:42;9.10;99.90
21246;DHT22;10781;50.928;4.440;2023-04-24T06:42:07;9.20;99.90
21246;DHT22;10781;50.928;4.440;2023-04-24T06:44:35;9.20;99.90
21246;DHT22;10781;50.928;4.440;2023-04-24T06:47:09;9.30;99.90
21246;DHT22;10781;50.928;4.440;2023-04-24T06:49:36;9.20;99.90
21246;DHT22;10781;50.928;4.440;2023-04-24T06:52:01;9.20;99.90
21246;DHT22;10781;50.928;4.440;2023-04-24T06:54:27;9.20;99.90
21246;DHT22;10781;50.928;4.440;2023-04-24T06:56:53;9.40;99.90
21246;DHT22;10781;50.928;4.440;2023-04-24T06:59:18;9.20;99.90
21246;DHT22;10781;50.928;4.440;2023-04-24T07:01:44;9.30;99.90
21246;DHT22;10781;50.928;4.440;2023-04-24T07:04:10;9.20;99.90
21246;DHT22;10781;50.928;4.440;2023-04-24T07:06:37;9.30;99.90
21246;DHT22;10781;50.928;4.440;2023-04-24T07:09:03;9.40;99.90
21246;DHT22;10781;50.928;4.440;2023-04-24T07:11:28;9.30;99.90
21246;DHT22;10781;50.928;4.440;2023-04-24T07:13:55;9.40;99.90
21246;DHT22;10781;50.928;4.440;2023-04-24T07:16:20;9.40;99.90
21246;DHT22;10781;50.928;4.440;2023-04-24T07:18:46;9.40;99.90
21246;DHT22;10781;50.928;4.440;2023-04-24T07:21:12;9.40;99.90
21246;DHT22;10781;50.928;4.440;2023-04-24T07:23:37;9.20;99.90
21246;DHT22;10781;50.928;4.440;2023-04-24T07:26:03;9.20;99.90
21246;DHT22;10781;50.928;4.440;2023-04-24T07:28:29;9.20;99.90
21246;DHT22;10781;50.928;4.440;2023-04-24T07:30:58;9.20;99.90
21246;DHT22;10781;50.928;4.440;2023-04-24T07:33:28;9.30;99.90
21246;DHT22;10781;50.928;4.440;2023-04-24T07:35:53;9.40;99.90
21246;DHT22;10781;50.928;4.440;2023-04-24T07:38:20;9.50;99.90
21246;DHT22;10781;50.928;4.440;2023-04-24T07:40:47;9.50;99.90
21246;DHT22;10781;50.928;4.440;2023-04-24T07:43:13;9.60;99.90
21246;DHT22;10781;50.928;4.440;2023-04-24T07:45:39;9.70;99.90
21246;DHT22;10781;50.928;4.440;2023-04-24T07:48:06;9.70;99.90
21246;DHT22;10781;50.928;4.440;2023-04-24T07:50:31;9.70;99.90
21246;DHT22;10781;50.928;4.440;2023-04-24T07:52:57;9.80;99.90
21246;DHT22;10781;50.928;4.440;2023-04-24T07:55:23;9.80;99.90
21246;DHT22;10781;50.928;4.440;2023-04-24T07:57:49;9.80;99.90
21246;DHT22;10781;50.928;4.440;2023-04-24T08:00:15;10.10;99.90
21246;DHT22;10781;50.928;4.440;2023-04-24T08:02:41;10.20;99.90
21246;DHT22;10781;50.928;4.440;2023-04-24T08:05:06;10.30;99.90
21246;DHT22;10781;50.928;4.440;2023-04-24T08:07:32;10.40;99.90
21246;DHT22;10781;50.928;4.440;2023-04-24T08:09:58;10.40;99.90
21246;DHT22;10781;50.928;4.440;2023-04-24T08:12:25;10.40;99.90
21246;DHT22;10781;50.928;4.440;2023-04-24T08:14:50;10.50;99.90
21246;DHT22;10781;50.928;4.440;2023-04-24T08:17:17;10.50;99.90
21246;DHT22;10781;50.928;4.440;2023-04-24T08:19:42;10.40;99.90
21246;DHT22;10781;50.928;4.440;2023-04-24T08:22:13;10.30;99.90
21246;DHT22;10781;50.928;4.440;2023-04-24T08:24:38;10.30;99.90
21246;DHT22;10781;50.928;4.440;2023-04-24T08:27:04;10.20;99.90
21246;DHT22;10781;50.928;4.440;2023-04-24T08:29:30;11.10;99.90
21246;DHT22;10781;50.928;4.440;2023-04-24T08:31:55;12.70;99.90
21246;DHT22;10781;50.928;4.440;2023-04-24T08:34:21;13.80;99.90
21246;DHT22;10781;50.928;4.440;2023-04-24T08:36:47;14.60;99.90
21246;DHT22;10781;50.928;4.440;2023-04-24T08:39:13;14.60;99.90
21246;DHT22;10781;50.928;4.440;2023-04-24T08:41:41;14.90;99.90
21246;DHT22;10781;50.928;4.440;2023-04-24T08:44:09;14.60;99.90
21246;DHT22;10781;50.928;4.440;2023-04-24T08:46:35;13.60;99.90
21246;DHT22;10781;50.928;4.440;2023-04-24T08:49:02;12.70;99.90
21246;DHT22;10781;50.928;4.440;2023-04-24T08:51:29;12.40;99.90
21246;DHT22;10781;50.928;4.440;2023-04-24T08:53:57;12.00;99.90
21246;DHT22;10781;50.928;4.440;2023-04-24T08:56:23;11.80;99.90
21246;DHT22;10781;50.928;4.440;2023-04-24T08:58:51;11.90;99.90
21246;DHT22;10781;50.928;4.440;2023-04-24T09:01:19;11.90;99.90
21246;DHT22;10781;50.928;4.440;2023-04-24T09:03:48;11.70;99.90
21246;DHT22;10781;50.928;4.440;2023-04-24T09:06:15;11.90;99.90
21246;DHT22;10781;50.928;4.440;2023-04-24T09:08:42;12.80;99.90
21246;DHT22;10781;50.928;4.440;2023-04-24T09:11:10;14.80;99.90
21246;DHT22;10781;50.928;4.440;2023-04-24T09:13:36;16.50;99.90
21246;DHT22;10781;50.928;4.440;2023-04-24T09:16:03;16.60;99.90
21246;DHT22;10781;50.928;4.440;2023-04-24T09:18:28;17.60;99.90
21246;DHT22;10781;50.928;4.440;2023-04-24T09:23:26;15.50;99.90
21246;DHT22;10781;50.928;4.440;2023-04-24T09:25:55;14.60;99.90
21246;DHT22;10781;50.928;4.440;2023-04-24T09:28:32;14.00;99.90
21246;DHT22;10781;50.928;4.440;2023-04-24T09:31:11;13.30;99.90
21246;DHT22;10781;50.928;4.440;2023-04-24T09:33:38;13.10;99.90
21246;DHT22;10781;50.928;4.440;2023-04-24T09:36:04;12.70;99.90
21246;DHT22;10781;50.928;4.440;2023-04-24T09:38:40;12.40;99.90
21246;DHT22;10781;50.928;4.440;2023-04-24T09:41:07;13.60;99.90
21246;DHT22;10781;50.928;4.440;2023-04-24T09:43:34;15.10;99.90
21246;DHT22;10781;50.928;4.440;2023-04-24T09:46:05;16.30;99.90
21246;DHT22;10781;50.928;4.440;2023-04-24T09:48:36;16.80;99.90
21246;DHT22;10781;50.928;4.440;2023-04-24T09:51:03;16.80;99.90
21246;DHT22;10781;50.928;4.440;2023-04-24T09:53:30;15.80;99.90
21246;DHT22;10781;50.928;4.440;2023-04-24T09:56:01;15.20;99.90
21246;DHT22;10781;50.928;4.440;2023-04-24T09:58:28;14.60;99.90
21246;DHT22;10781;50.928;4.440;2023-04-24T10:00:55;14.10;99.90
21246;DHT22;10781;50.928;4.440;2023-04-24T10:03:24;14.00;99.90
21246;DHT22;10781;50.928;4.440;2023-04-24T10:05:52;14.10;99.90
21246;DHT22;10781;50.928;4.440;2023-04-24T10:08:18;14.60;99.90
21246;DHT22;10781;50.928;4.440;2023-04-24T10:10:45;15.20;99.90
21246;DHT22;10781;50.928;4.440;2023-04-24T10:13:13;15.80;99.90
21246;DHT22;10781;50.928;4.440;2023-04-24T10:15:41;16.00;99.90
21246;DHT22;10781;50.928;4.440;2023-04-24T10:18:08;16.40;99.90
21246;DHT22;10781;50.928;4.440;2023-04-24T10:20:37;16.00;99.90
21246;DHT22;10781;50.928;4.440;2023-04-24T10:23:03;16.20;99.90
21246;DHT22;10781;50.928;4.440;2023-04-24T10:25:30;16.00;99.90
21246;DHT22;10781;50.928;4.440;2023-04-24T10:27:58;16.30;99.90
21246;DHT22;10781;50.928;4.440;2023-04-24T10:30:28;16.10;99.90
21246;DHT22;10781;50.928;4.440;2023-04-24T10:32:54;15.60;99.90
21246;DHT22;10781;50.928;4.440;2023-04-24T10:35:21;14.60;99.90
21246;DHT22;10781;50.928;4.440;2023-04-24T10:38:01;14.40;99.90
21246;DHT22;10781;50.928;4.440;2023-04-24T10:40:33;14.00;99.90
21246;DHT22;10781;50.928;4.440;2023-04-24T10:43:03;14.00;99.90
21246;DHT22;10781;50.928;4.440;2023-04-24T10:45:32;13.90;99.90
21246;DHT22;10781;50.928;4.440;2023-04-24T10:48:04;14.10;99.90
21246;DHT22;10781;50.928;4.440;2023-04-24T10:50:53;14.50;99.90
21246;DHT22;10781;50.928;4.440;2023-04-24T10:53:23;14.40;99.90
21246;DHT22;10781;50.928;4.440;2023-04-24T10:56:03;14.10;99.90
21246;DHT22;10781;50.928;4.440;2023-04-24T10:58:40;14.10;99.90
21246;DHT22;10781;50.928;4.440;2023-04-24T11:01:06;14.30;99.90
21246;DHT22;10781;50.928;4.440;2023-04-24T11:03:33;14.40;99.90
21246;DHT22;10781;50.928;4.440;2023-04-24T11:08:39;14.50;99.90
21246;DHT22;10781;50.928;4.440;2023-04-24T11:11:13;14.40;99.90
21246;DHT22;10781;50.928;4.440;2023-04-24T11:18:52;18.00;99.90
21246;DHT22;10781;50.928;4.440;2023-04-24T11:21:22;18.50;99.90
21246;DHT22;10781;50.928;4.440;2023-04-24T11:23:48;17.70;99.90
21246;DHT22;10781;50.928;4.440;2023-04-24T11:26:20;17.60;99.90
21246;DHT22;10781;50.928;4.440;2023-04-24T11:28:47;17.00;99.90
21246;DHT22;10781;50.928;4.440;2023-04-24T11:31:39;17.10;99.90
21246;DHT22;10781;50.928;4.440;2023-04-24T11:34:12;17.70;99.90
21246;DHT22;10781;50.928;4.440;2023-04-24T11:36:39;17.30;99.90
21246;DHT22;10781;50.928;4.440;2023-04-24T11:39:05;16.60;99.90
21246;DHT22;10781;50.928;4.440;2023-04-24T11:41:33;16.10;99.90
21246;DHT22;10781;50.928;4.440;2023-04-24T11:43:59;16.00;99.90
21246;DHT22;10781;50.928;4.440;2023-04-24T11:46:29;16.30;99.90
21246;DHT22;10781;50.928;4.440;2023-04-24T11:48:56;16.10;99.90
21246;DHT22;10781;50.928;4.440;2023-04-24T11:51:23;15.60;99.90
21246;DHT22;10781;50.928;4.440;2023-04-24T11:53:51;15.30;99.90
21246;DHT22;10781;50.928;4.440;2023-04-24T11:56:23;16.80;99.90
21246;DHT22;10781;50.928;4.440;2023-04-24T11:58:51;18.20;99.90
21246;DHT22;10781;50.928;4.440;2023-04-24T12:01:17;19.50;99.90
21246;DHT22;10781;50.928;4.440;2023-04-24T12:03:47;19.90;99.90
21246;DHT22;10781;50.928;4.440;2023-04-24T12:06:13;19.50;99.90
21246;DHT22;10781;50.928;4.440;2023-04-24T12:08:39;19.30;99.90
21246;DHT22;10781;50.928;4.440;2023-04-24T12:11:06;18.40;99.90
21246;DHT22;10781;50.928;4.440;2023-04-24T12:13:35;17.50;99.90
21246;DHT22;10781;50.928;4.440;2023-04-24T12:16:03;17.10;99.90
21246;DHT22;10781;50.928;4.440;2023-04-24T12:18:30;17.90;99.90
21246;DHT22;10781;50.928;4.440;2023-04-24T12:21:23;17.70;99.90
21246;DHT22;10781;50.928;4.440;2023-04-24T12:23:54;17.30;99.90
21246;DHT22;10781;50.928;4.440;2023-04-24T12:26:20;17.40;99.90
21246;DHT22;10781;50.928;4.440;2023-04-24T12:28:48;17.50;99.90
21246;DHT22;10781;50.928;4.440;2023-04-24T12:31:16;18.00;99.90
21246;DHT22;10781;50.928;4.440;2023-04-24T12:33:41;18.40;99.90
21246;DHT22;10781;50.928;4.440;2023-04-24T12:36:10;18.50;99.90
21246;DHT22;10781;50.928;4.440;2023-04-24T12:38:37;18.00;99.90
21246;DHT22;10781;50.928;4.440;2023-04-24T12:41:11;18.50;99.90
21246;DHT22;10781;50.928;4.440;2023-04-24T12:43:37;18.10;99.90
21246;DHT22;10781;50.928;4.440;2023-04-24T12:46:03;17.50;99.90
21246;DHT22;10781;50.928;4.440;2023-04-24T12:48:30;16.90;99.90
21246;DHT22;10781;50.928;4.440;2023-04-24T12:50:59;16.20;99.90
21246;DHT22;10781;50.928;4.440;2023-04-24T12:53:28;15.90;99.90
21246;DHT22;10781;50.928;4.440;2023-04-24T12:55:55;16.00;99.90
21246;DHT22;10781;50.928;4.440;2023-04-24T12:58:21;15.90;99.90
21246;DHT22;10781;50.928;4.440;2023-04-24T13:00:47;16.60;99.90
21246;DHT22;10781;50.928;4.440;2023-04-24T13:03:13;17.10;99.90
21246;DHT22;10781;50.928;4.440;2023-04-24T13:05:39;17.90;99.90
21246;DHT22;10781;50.928;4.440;2023-04-24T13:08:05;18.80;99.90
21246;DHT22;10781;50.928;4.440;2023-04-24T13:10:31;19.30;99.90
21246;DHT22;10781;50.928;4.440;2023-04-24T13:12:57;19.90;99.90
21246;DHT22;10781;50.928;4.440;2023-04-24T13:15:22;21.00;99.90
21246;DHT22;10781;50.928;4.440;2023-04-24T13:17:48;21.60;99.90
21246;DHT22;10781;50.928;4.440;2023-04-24T13:20:14;21.70;99.90
21246;DHT22;10781;50.928;4.440;2023-04-24T13:22:40;22.70;99.90
21246;DHT22;10781;50.928;4.440;2023-04-24T13:25:06;23.20;97.20
21246;DHT22;10781;50.928;4.440;2023-04-24T13:27:32;23.70;96.20
21246;DHT22;10781;50.928;4.440;2023-04-24T13:29:58;23.60;94.30
21246;DHT22;10781;50.928;4.440;2023-04-24T13:32:23;23.40;93.80
21246;DHT22;10781;50.928;4.440;2023-04-24T13:34:49;21.80;93.40
21246;DHT22;10781;50.928;4.440;2023-04-24T13:37:15;20.60;94.90
21246;DHT22;10781;50.928;4.440;2023-04-24T13:39:41;20.30;96.30
21246;DHT22;10781;50.928;4.440;2023-04-24T13:42:09;19.80;97.10
21246;DHT22;10781;50.928;4.440;2023-04-24T13:44:35;19.60;99.30
21246;DHT22;10781;50.928;4.440;2023-04-24T13:47:00;18.90;99.70
21246;DHT22;10781;50.928;4.440;2023-04-24T13:49:27;18.80;99.90
21246;DHT22;10781;50.928;4.440;2023-04-24T13:51:53;18.50;99.90
21246;DHT22;10781;50.928;4.440;2023-04-24T13:54:19;18.40;99.90
21246;DHT22;10781;50.928;4.440;2023-04-24T13:56:45;17.90;99.90
21246;DHT22;10781;50.928;4.440;2023-04-24T13:59:12;17.70;99.90
21246;DHT22;10781;50.928;4.440;2023-04-24T14:01:38;17.50;99.90
21246;DHT22;10781;50.928;4.440;2023-04-24T14:04:04;17.40;99.90
21246;DHT22;10781;50.928;4.440;2023-04-24T14:06:30;17.50;99.90
21246;DHT22;10781;50.928;4.440;2023-04-24T14:08:56;17.50;99.90
21246;DHT22;10781;50.928;4.440;2023-04-24T14:11:22;17.40;99.90
21246;DHT22;10781;50.928;4.440;2023-04-24T14:13:48;17.50;99.90
21246;DHT22;10781;50.928;4.440;2023-04-24T14:16:14;17.20;99.90
21246;DHT22;10781;50.928;4.440;2023-04-24T14:18:40;17.60;99.90
21246;DHT22;10781;50.928;4.440;2023-04-24T14:21:06;19.00;99.90
21246;DHT22;10781;50.928;4.440;2023-04-24T14:23:31;20.10;99.90
21246;DHT22;10781;50.928;4.440;2023-04-24T14:25:58;19.40;99.70
21246;DHT22;10781;50.928;4.440;2023-04-24T14:28:24;18.70;99.90
21246;DHT22;10781;50.928;4.440;2023-04-24T14:30:50;19.10;99.90
21246;DHT22;10781;50.928;4.440;2023-04-24T14:33:17;19.20;99.90
21246;DHT22;10781;50.928;4.440;2023-04-24T14:35:42;20.10;99.90
21246;DHT22;10781;50.928;4.440;2023-04-24T14:38:09;20.40;97.90
21246;DHT22;10781;50.928;4.440;2023-04-24T14:40:35;20.30;99.60
21246;DHT22;10781;50.928;4.440;2023-04-24T14:43:01;20.40;97.00
21246;DHT22;10781;50.928;4.440;2023-04-24T14:45:26;20.70;96.20
21246;DHT22;10781;50.928;4.440;2023-04-24T14:47:52;20.20;96.40
21246;DHT22;10781;50.928;4.440;2023-04-24T14:50:19;19.80;97.10
21246;DHT22;10781;50.928;4.440;2023-04-24T14:52:44;19.20;98.60
21246;DHT22;10781;50.928;4.440;2023-04-24T14:55:10;18.30;99.80
21246;DHT22;10781;50.928;4.440;2023-04-24T14:57:36;17.70;99.90
21246;DHT22;10781;50.928;4.440;2023-04-24T15:00:08;17.50;99.90
21246;DHT22;10781;50.928;4.440;2023-04-24T15:02:35;17.40;99.90
21246;DHT22;10781;50.928;4.440;2023-04-24T15:05:03;17.40;99.90
21246;DHT22;10781;50.928;4.440;2023-04-24T15:07:29;17.40;99.90
21246;DHT22;10781;50.928;4.440;2023-04-24T15:09:56;17.10;99.90
21246;DHT22;10781;50.928;4.440;2023-04-24T15:12:21;17.00;99.90
21246;DHT22;10781;50.928;4.440;2023-04-24T15:14:47;17.00;99.90
21246;DHT22;10781;50.928;4.440;2023-04-24T15:17:13;17.10;99.90
21246;DHT22;10781;50.928;4.440;2023-04-24T15:19:38;17.10;99.90
21246;DHT22;10781;50.928;4.440;2023-04-24T15:22:04;16.90;99.90
21246;DHT22;10781;50.928;4.440;2023-04-24T15:24:30;16.80;99.90
21246;DHT22;10781;50.928;4.440;2023-04-24T15:26:55;16.60;99.90
21246;DHT22;10781;50.928;4.440;2023-04-24T15:29:21;16.50;99.90
21246;DHT22;10781;50.928;4.440;2023-04-24T15:31:47;16.20;99.90
21246;DHT22;10781;50.928;4.440;2023-04-24T15:34:12;16.10;99.90
21246;DHT22;10781;50.928;4.440;2023-04-24T15:36:38;16.00;99.90
21246;DHT22;10781;50.928;4.440;2023-04-24T15:39:04;15.90;99.90
21246;DHT22;10781;50.928;4.440;2023-04-24T15:41:29;16.00;99.90
21246;DHT22;10781;50.928;4.440;2023-04-24T15:43:57;15.80;99.90